sensor_id;sensor_type;location;lat;lon;timestamp;P1;durP1;ratioP1;P2;durP2;ratioP2
32780;SDS011;19136;47.032;15.502;2024-03-08T00:01:35;29.65;;;13.10;;
32780;SDS011;19136;47.032;15.502;2024-03-08T00:04:00;29.30;;;14.65;;
32780;SDS011;19136;47.032;15.502;2024-03-08T00:06:26;27.77;;;13.60;;
32780;SDS011;19136;47.032;15.502;2024-03-08T00:08:51;36.03;;;15.85;;
32780;SDS011;19136;47.032;15.502;2024-03-08T00:11:17;29.25;;;14.68;;
32780;SDS011;19136;47.032;15.502;2024-03-08T00:13:42;31.75;;;13.80;;
32780;SDS011;19136;47.032;15.502;2024-03-08T00:16:08;29.73;;;13.20;;
32780;SDS011;19136;47.032;15.502;2024-03-08T00:18:35;24.05;;;12.48;;
32780;SDS011;19136;47.032;15.502;2024-03-08T00:21:00;25.50;;;13.05;;
32780;SDS011;19136;47.032;15.502;2024-03-08T00:23:26;33.28;;;14.13;;
32780;SDS011;19136;47.032;15.502;2024-03-08T00:25:54;26.58;;;12.70;;
32780;SDS011;19136;47.032;15.502;2024-03-08T00:28:21;30.95;;;13.95;;
32780;SDS011;19136;47.032;15.502;2024-03-08T00:30:50;27.85;;;13.70;;
32780;SDS011;19136;47.032;15.502;2024-03-08T00:33:18;34.90;;;15.35;;
32780;SDS011;19136;47.032;15.502;2024-03-08T00:35:44;36.80;;;15.88;;
32780;SDS011;19136;47.032;15.502;2024-03-08T00:38:09;31.08;;;13.93;;
32780;SDS011;19136;47.032;15.502;2024-03-08T00:40:34;33.40;;;15.25;;
32780;SDS011;19136;47.032;15.502;2024-03-08T00:43:00;29.00;;;15.00;;
32780;SDS011;19136;47.032;15.502;2024-03-08T00:45:25;27.90;;;14.07;;
32780;SDS011;19136;47.032;15.502;2024-03-08T00:47:51;27.10;;;14.57;;
32780;SDS011;19136;47.032;15.502;2024-03-08T00:50:16;30.83;;;14.10;;
32780;SDS011;19136;47.032;15.502;2024-03-08T00:52:44;28.63;;;13.45;;
32780;SDS011;19136;47.032;15.502;2024-03-08T00:55:09;31.73;;;14.40;;
32780;SDS011;19136;47.032;15.502;2024-03-08T00:57:39;25.85;;;13.38;;
32780;SDS011;19136;47.032;15.502;2024-03-08T01:00:06;33.55;;;14.38;;
32780;SDS011;19136;47.032;15.502;2024-03-08T01:02:39;27.48;;;13.70;;
32780;SDS011;19136;47.032;15.502;2024-03-08T01:05:07;26.42;;;12.93;;
32780;SDS011;19136;47.032;15.502;2024-03-08T01:07:33;25.45;;;12.80;;
32780;SDS011;19136;47.032;15.502;2024-03-08T01:10:01;26.88;;;13.75;;
32780;SDS011;19136;47.032;15.502;2024-03-08T01:12:27;26.42;;;13.55;;
32780;SDS011;19136;47.032;15.502;2024-03-08T01:14:52;27.65;;;13.70;;
32780;SDS011;19136;47.032;15.502;2024-03-08T01:17:21;28.50;;;14.10;;
32780;SDS011;19136;47.032;15.502;2024-03-08T01:19:46;29.58;;;13.57;;
32780;SDS011;19136;47.032;15.502;2024-03-08T01:22:12;28.08;;;13.88;;
32780;SDS011;19136;47.032;15.502;2024-03-08T01:24:38;33.25;;;14.07;;
32780;SDS011;19136;47.032;15.502;2024-03-08T01:27:04;27.30;;;14.90;;
32780;SDS011;19136;47.032;15.502;2024-03-08T01:29:29;32.17;;;15.18;;
32780;SDS011;19136;47.032;15.502;2024-03-08T01:31:55;29.13;;;13.65;;
32780;SDS011;19136;47.032;15.502;2024-03-08T01:34:21;29.48;;;14.60;;
32780;SDS011;19136;47.032;15.502;2024-03-08T01:36:48;28.27;;;13.80;;
32780;SDS011;19136;47.032;15.502;2024-03-08T01:39:13;26.45;;;13.77;;
32780;SDS011;19136;47.032;15.502;2024-03-08T01:41:39;33.83;;;16.55;;
32780;SDS011;19136;47.032;15.502;2024-03-08T01:44:05;26.98;;;14.20;;
32780;SDS011;19136;47.032;15.502;2024-03-08T01:46:35;25.30;;;13.27;;
32780;SDS011;19136;47.032;15.502;2024-03-08T01:49:01;29.08;;;14.10;;
32780;SDS011;19136;47.032;15.502;2024-03-08T01:51:28;27.08;;;13.88;;
32780;SDS011;19136;47.032;15.502;2024-03-08T01:53:54;26.38;;;13.27;;
32780;SDS011;19136;47.032;15.502;2024-03-08T01:56:20;27.52;;;14.30;;
32780;SDS011;19136;47.032;15.502;2024-03-08T01:58:46;30.75;;;14.48;;
32780;SDS011;19136;47.032;15.502;2024-03-08T02:01:12;25.00;;;12.75;;
32780;SDS011;19136;47.032;15.502;2024-03-08T02:03:40;28.02;;;13.30;;
32780;SDS011;19136;47.032;15.502;2024-03-08T02:06:09;25.50;;;13.52;;
32780;SDS011;19136;47.032;15.502;2024-03-08T02:08:35;24.65;;;12.35;;
32780;SDS011;19136;47.032;15.502;2024-03-08T02:11:01;26.08;;;12.77;;
32780;SDS011;19136;47.032;15.502;2024-03-08T02:13:27;26.02;;;12.75;;
32780;SDS011;19136;47.032;15.502;2024-03-08T02:15:54;27.50;;;12.43;;
32780;SDS011;19136;47.032;15.502;2024-03-08T02:18:20;28.77;;;14.75;;
32780;SDS011;19136;47.032;15.502;2024-03-08T02:20:47;32.08;;;14.75;;
32780;SDS011;19136;47.032;15.502;2024-03-08T02:23:13;32.47;;;13.18;;
32780;SDS011;19136;47.032;15.502;2024-03-08T02:25:39;24.05;;;12.88;;
32780;SDS011;19136;47.032;15.502;2024-03-08T02:28:04;23.27;;;12.23;;
32780;SDS011;19136;47.032;15.502;2024-03-08T02:30:30;24.52;;;12.95;;
32780;SDS011;19136;47.032;15.502;2024-03-08T02:32:55;25.20;;;12.98;;
32780;SDS011;19136;47.032;15.502;2024-03-08T02:35:21;25.27;;;12.90;;
32780;SDS011;19136;47.032;15.502;2024-03-08T02:37:46;25.23;;;12.55;;
32780;SDS011;19136;47.032;15.502;2024-03-08T02:40:13;28.02;;;12.88;;
32780;SDS011;19136;47.032;15.502;2024-03-08T02:42:41;29.33;;;14.50;;
32780;SDS011;19136;47.032;15.502;2024-03-08T02:45:07;27.83;;;13.40;;
32780;SDS011;19136;47.032;15.502;2024-03-08T02:47:35;28.10;;;13.95;;
32780;SDS011;19136;47.032;15.502;2024-03-08T02:50:00;28.30;;;13.13;;
32780;SDS011;19136;47.032;15.502;2024-03-08T02:52:26;26.27;;;14.43;;
32780;SDS011;19136;47.032;15.502;2024-03-08T02:54:52;25.77;;;13.13;;
32780;SDS011;19136;47.032;15.502;2024-03-08T02:57:17;28.38;;;14.23;;
32780;SDS011;19136;47.032;15.502;2024-03-08T02:59:43;25.08;;;12.93;;
32780;SDS011;19136;47.032;15.502;2024-03-08T03:02:09;31.00;;;13.88;;
32780;SDS011;19136;47.032;15.502;2024-03-08T03:04:35;26.77;;;13.15;;
32780;SDS011;19136;47.032;15.502;2024-03-08T03:07:01;24.92;;;12.82;;
32780;SDS011;19136;47.032;15.502;2024-03-08T03:09:26;26.13;;;13.68;;
32780;SDS011;19136;47.032;15.502;2024-03-08T03:11:56;26.42;;;13.65;;
32780;SDS011;19136;47.032;15.502;2024-03-08T03:14:21;29.85;;;13.98;;
32780;SDS011;19136;47.032;15.502;2024-03-08T03:16:47;26.48;;;13.48;;
32780;SDS011;19136;47.032;15.502;2024-03-08T03:19:12;24.20;;;13.45;;
32780;SDS011;19136;47.032;15.502;2024-03-08T03:21:38;24.77;;;13.82;;
32780;SDS011;19136;47.032;15.502;2024-03-08T03:24:03;27.30;;;12.43;;
32780;SDS011;19136;47.032;15.502;2024-03-08T03:26:30;26.42;;;13.90;;
32780;SDS011;19136;47.032;15.502;2024-03-08T03:28:56;26.90;;;13.43;;
32780;SDS011;19136;47.032;15.502;2024-03-08T03:31:22;27.77;;;13.25;;
32780;SDS011;19136;47.032;15.502;2024-03-08T03:33:49;24.30;;;12.45;;
32780;SDS011;19136;47.032;15.502;2024-03-08T03:36:16;28.45;;;13.15;;
32780;SDS011;19136;47.032;15.502;2024-03-08T03:38:43;28.15;;;12.75;;
32780;SDS011;19136;47.032;15.502;2024-03-08T03:41:08;27.38;;;13.73;;
32780;SDS011;19136;47.032;15.502;2024-03-08T03:43:37;29.48;;;13.32;;
32780;SDS011;19136;47.032;15.502;2024-03-08T03:46:06;28.63;;;13.65;;
32780;SDS011;19136;47.032;15.502;2024-03-08T03:48:35;32.08;;;14.23;;
32780;SDS011;19136;47.032;15.502;2024-03-08T03:51:01;25.83;;;13.45;;
32780;SDS011;19136;47.032;15.502;2024-03-08T03:53:26;27.33;;;13.02;;
32780;SDS011;19136;47.032;15.502;2024-03-08T03:55:52;26.73;;;12.35;;
32780;SDS011;19136;47.032;15.502;2024-03-08T03:58:17;30.25;;;13.57;;
32780;SDS011;19136;47.032;15.502;2024-03-08T04:00:47;24.80;;;12.93;;
32780;SDS011;19136;47.032;15.502;2024-03-08T04:03:13;26.35;;;13.48;;
32780;SDS011;19136;47.032;15.502;2024-03-08T04:05:38;23.60;;;12.93;;
32780;SDS011;19136;47.032;15.502;2024-03-08T04:08:04;35.33;;;15.23;;
32780;SDS011;19136;47.032;15.502;2024-03-08T04:10:29;25.65;;;13.93;;
32780;SDS011;19136;47.032;15.502;2024-03-08T04:12:55;27.27;;;13.50;;
32780;SDS011;19136;47.032;15.502;2024-03-08T04:15:22;26.60;;;13.38;;
32780;SDS011;19136;47.032;15.502;2024-03-08T04:17:48;31.50;;;15.98;;
32780;SDS011;19136;47.032;15.502;2024-03-08T04:20:13;31.75;;;14.95;;
32780;SDS011;19136;47.032;15.502;2024-03-08T04:22:39;29.45;;;13.77;;
32780;SDS011;19136;47.032;15.502;2024-03-08T04:25:05;25.52;;;12.50;;
32780;SDS011;19136;47.032;15.502;2024-03-08T04:27:34;26.98;;;13.57;;
32780;SDS011;19136;47.032;15.502;2024-03-08T04:29:59;26.50;;;13.63;;
32780;SDS011;19136;47.032;15.502;2024-03-08T04:32:25;24.63;;;12.38;;
32780;SDS011;19136;47.032;15.502;2024-03-08T04:34:50;27.20;;;13.25;;
32780;SDS011;19136;47.032;15.502;2024-03-08T04:37:16;31.08;;;14.18;;
32780;SDS011;19136;47.032;15.502;2024-03-08T04:39:46;33.47;;;14.63;;
32780;SDS011;19136;47.032;15.502;2024-03-08T04:42:12;27.88;;;13.88;;
32780;SDS011;19136;47.032;15.502;2024-03-08T04:44:39;32.03;;;14.90;;
32780;SDS011;19136;47.032;15.502;2024-03-08T04:47:05;37.47;;;16.25;;
32780;SDS011;19136;47.032;15.502;2024-03-08T04:49:32;33.95;;;15.43;;
32780;SDS011;19136;47.032;15.502;2024-03-08T04:52:00;35.70;;;15.20;;
32780;SDS011;19136;47.032;15.502;2024-03-08T04:54:28;31.55;;;15.77;;
32780;SDS011;19136;47.032;15.502;2024-03-08T04:56:53;33.83;;;16.38;;
32780;SDS011;19136;47.032;15.502;2024-03-08T04:59:19;39.00;;;17.70;;
32780;SDS011;19136;47.032;15.502;2024-03-08T05:01:44;37.88;;;17.30;;
32780;SDS011;19136;47.032;15.502;2024-03-08T05:04:10;36.50;;;17.65;;
32780;SDS011;19136;47.032;15.502;2024-03-08T05:06:35;36.85;;;18.10;;
32780;SDS011;19136;47.032;15.502;2024-03-08T05:09:02;36.80;;;17.67;;
32780;SDS011;19136;47.032;15.502;2024-03-08T05:11:45;33.55;;;16.00;;
32780;SDS011;19136;47.032;15.502;2024-03-08T05:14:14;36.70;;;17.95;;
32780;SDS011;19136;47.032;15.502;2024-03-08T05:16:43;36.90;;;17.85;;
32780;SDS011;19136;47.032;15.502;2024-03-08T05:19:20;36.00;;;18.75;;
32780;SDS011;19136;47.032;15.502;2024-03-08T05:21:46;42.08;;;17.73;;
32780;SDS011;19136;47.032;15.502;2024-03-08T05:24:13;37.88;;;17.63;;
32780;SDS011;19136;47.032;15.502;2024-03-08T05:26:42;38.75;;;18.67;;
32780;SDS011;19136;47.032;15.502;2024-03-08T05:29:08;37.47;;;18.08;;
32780;SDS011;19136;47.032;15.502;2024-03-08T05:34:11;32.95;;;17.65;;
32780;SDS011;19136;47.032;15.502;2024-03-08T05:36:39;38.40;;;16.95;;
32780;SDS011;19136;47.032;15.502;2024-03-08T05:39:05;38.03;;;17.85;;
32780;SDS011;19136;47.032;15.502;2024-03-08T05:41:32;36.90;;;17.35;;
32780;SDS011;19136;47.032;15.502;2024-03-08T05:43:57;37.67;;;17.48;;
32780;SDS011;19136;47.032;15.502;2024-03-08T05:46:23;35.30;;;16.85;;
32780;SDS011;19136;47.032;15.502;2024-03-08T05:48:48;34.85;;;17.52;;
32780;SDS011;19136;47.032;15.502;2024-03-08T05:51:14;35.33;;;18.00;;
32780;SDS011;19136;47.032;15.502;2024-03-08T05:53:39;39.28;;;17.27;;
32780;SDS011;19136;47.032;15.502;2024-03-08T05:56:04;35.80;;;17.23;;
32780;SDS011;19136;47.032;15.502;2024-03-08T05:58:30;43.00;;;17.60;;
32780;SDS011;19136;47.032;15.502;2024-03-08T06:00:56;33.53;;;16.88;;
32780;SDS011;19136;47.032;15.502;2024-03-08T06:03:22;40.10;;;17.13;;
32780;SDS011;19136;47.032;15.502;2024-03-08T06:05:50;33.70;;;17.52;;
32780;SDS011;19136;47.032;15.502;2024-03-08T06:08:15;33.35;;;16.63;;
32780;SDS011;19136;47.032;15.502;2024-03-08T06:10:41;32.25;;;15.85;;
32780;SDS011;19136;47.032;15.502;2024-03-08T06:13:07;37.20;;;17.73;;
32780;SDS011;19136;47.032;15.502;2024-03-08T06:15:35;34.78;;;17.42;;
32780;SDS011;19136;47.032;15.502;2024-03-08T06:18:01;40.88;;;21.58;;
32780;SDS011;19136;47.032;15.502;2024-03-08T06:20:26;43.20;;;22.80;;
32780;SDS011;19136;47.032;15.502;2024-03-08T06:22:52;45.30;;;21.73;;
32780;SDS011;19136;47.032;15.502;2024-03-08T06:25:17;39.20;;;19.90;;
32780;SDS011;19136;47.032;15.502;2024-03-08T06:27:43;42.17;;;21.27;;
32780;SDS011;19136;47.032;15.502;2024-03-08T06:30:09;48.10;;;22.02;;
32780;SDS011;19136;47.032;15.502;2024-03-08T06:32:38;38.30;;;17.52;;
32780;SDS011;19136;47.032;15.502;2024-03-08T06:35:03;35.88;;;18.83;;
32780;SDS011;19136;47.032;15.502;2024-03-08T06:37:35;45.78;;;20.70;;
32780;SDS011;19136;47.032;15.502;2024-03-08T06:40:01;40.70;;;20.63;;
32780;SDS011;19136;47.032;15.502;2024-03-08T06:42:27;37.67;;;17.40;;
32780;SDS011;19136;47.032;15.502;2024-03-08T06:44:53;35.67;;;16.17;;
32780;SDS011;19136;47.032;15.502;2024-03-08T06:47:21;33.10;;;16.88;;
32780;SDS011;19136;47.032;15.502;2024-03-08T06:49:47;32.28;;;16.25;;
32780;SDS011;19136;47.032;15.502;2024-03-08T06:52:14;34.08;;;16.63;;
32780;SDS011;19136;47.032;15.502;2024-03-08T06:54:43;52.30;;;23.45;;
32780;SDS011;19136;47.032;15.502;2024-03-08T06:57:08;60.50;;;23.92;;
32780;SDS011;19136;47.032;15.502;2024-03-08T06:59:35;34.33;;;18.05;;
32780;SDS011;19136;47.032;15.502;2024-03-08T07:02:01;36.70;;;19.15;;
32780;SDS011;19136;47.032;15.502;2024-03-08T07:04:27;38.58;;;18.80;;
32780;SDS011;19136;47.032;15.502;2024-03-08T07:06:57;30.95;;;16.50;;
32780;SDS011;19136;47.032;15.502;2024-03-08T07:09:26;30.17;;;15.48;;
32780;SDS011;19136;47.032;15.502;2024-03-08T07:11:52;45.13;;;15.38;;
32780;SDS011;19136;47.032;15.502;2024-03-08T07:14:23;56.85;;;20.02;;
32780;SDS011;19136;47.032;15.502;2024-03-08T07:16:49;51.60;;;22.52;;
32780;SDS011;19136;47.032;15.502;2024-03-08T07:19:14;35.22;;;17.17;;
32780;SDS011;19136;47.032;15.502;2024-03-08T07:21:40;37.83;;;16.30;;
32780;SDS011;19136;47.032;15.502;2024-03-08T07:24:07;46.70;;;20.02;;
32780;SDS011;19136;47.032;15.502;2024-03-08T07:26:52;43.90;;;20.67;;
32780;SDS011;19136;47.032;15.502;2024-03-08T07:29:17;39.70;;;19.23;;
32780;SDS011;19136;47.032;15.502;2024-03-08T07:31:43;40.22;;;19.20;;
32780;SDS011;19136;47.032;15.502;2024-03-08T07:34:27;32.72;;;17.33;;
32780;SDS011;19136;47.032;15.502;2024-03-08T07:36:57;42.97;;;18.15;;
32780;SDS011;19136;47.032;15.502;2024-03-08T07:39:22;42.40;;;20.08;;
32780;SDS011;19136;47.032;15.502;2024-03-08T07:41:49;30.30;;;16.75;;
32780;SDS011;19136;47.032;15.502;2024-03-08T07:44:18;33.60;;;16.80;;
32780;SDS011;19136;47.032;15.502;2024-03-08T07:46:43;40.83;;;20.13;;
32780;SDS011;19136;47.032;15.502;2024-03-08T07:49:09;43.65;;;21.20;;
32780;SDS011;19136;47.032;15.502;2024-03-08T07:51:36;40.00;;;19.60;;
32780;SDS011;19136;47.032;15.502;2024-03-08T07:54:02;33.80;;;17.27;;
32780;SDS011;19136;47.032;15.502;2024-03-08T07:56:29;35.08;;;18.08;;
32780;SDS011;19136;47.032;15.502;2024-03-08T07:58:55;33.97;;;17.67;;
32780;SDS011;19136;47.032;15.502;2024-03-08T08:01:20;38.08;;;19.00;;
32780;SDS011;19136;47.032;15.502;2024-03-08T08:03:46;39.00;;;19.00;;
32780;SDS011;19136;47.032;15.502;2024-03-08T08:06:14;34.28;;;18.13;;
32780;SDS011;19136;47.032;15.502;2024-03-08T08:08:44;36.75;;;19.13;;
32780;SDS011;19136;47.032;15.502;2024-03-08T08:11:10;34.67;;;17.50;;
32780;SDS011;19136;47.032;15.502;2024-03-08T08:13:36;35.75;;;17.58;;
32780;SDS011;19136;47.032;15.502;2024-03-08T08:16:02;34.35;;;18.50;;
32780;SDS011;19136;47.032;15.502;2024-03-08T08:18:28;34.47;;;18.80;;
32780;SDS011;19136;47.032;15.502;2024-03-08T08:20:54;33.47;;;18.27;;
32780;SDS011;19136;47.032;15.502;2024-03-08T08:23:20;43.25;;;21.95;;
32780;SDS011;19136;47.032;15.502;2024-03-08T08:25:46;39.55;;;20.25;;
32780;SDS011;19136;47.032;15.502;2024-03-08T08:28:11;39.22;;;19.63;;
32780;SDS011;19136;47.032;15.502;2024-03-08T08:30:38;36.90;;;19.88;;
32780;SDS011;19136;47.032;15.502;2024-03-08T08:33:03;39.42;;;20.73;;
32780;SDS011;19136;47.032;15.502;2024-03-08T08:35:30;41.22;;;19.60;;
32780;SDS011;19136;47.032;15.502;2024-03-08T08:37:56;36.45;;;18.15;;
32780;SDS011;19136;47.032;15.502;2024-03-08T08:40:24;44.70;;;21.20;;
32780;SDS011;19136;47.032;15.502;2024-03-08T08:42:51;43.20;;;23.00;;
32780;SDS011;19136;47.032;15.502;2024-03-08T08:45:18;46.05;;;23.15;;
32780;SDS011;19136;47.032;15.502;2024-03-08T08:47:44;44.28;;;21.58;;
32780;SDS011;19136;47.032;15.502;2024-03-08T08:50:10;42.38;;;21.60;;
32780;SDS011;19136;47.032;15.502;2024-03-08T08:52:37;40.05;;;20.90;;
32780;SDS011;19136;47.032;15.502;2024-03-08T08:55:03;41.80;;;20.90;;
32780;SDS011;19136;47.032;15.502;2024-03-08T08:57:30;46.28;;;22.50;;
32780;SDS011;19136;47.032;15.502;2024-03-08T08:59:59;40.00;;;21.05;;
32780;SDS011;19136;47.032;15.502;2024-03-08T09:02:25;41.08;;;20.60;;
32780;SDS011;19136;47.032;15.502;2024-03-08T09:04:51;41.60;;;20.40;;
32780;SDS011;19136;47.032;15.502;2024-03-08T09:07:17;41.40;;;20.45;;
32780;SDS011;19136;47.032;15.502;2024-03-08T09:09:44;42.78;;;20.63;;
32780;SDS011;19136;47.032;15.502;2024-03-08T09:12:09;39.95;;;20.23;;
32780;SDS011;19136;47.032;15.502;2024-03-08T09:14:41;42.08;;;19.80;;
32780;SDS011;19136;47.032;15.502;2024-03-08T09:17:07;40.45;;;19.98;;
32780;SDS011;19136;47.032;15.502;2024-03-08T09:19:35;34.88;;;18.75;;
32780;SDS011;19136;47.032;15.502;2024-03-08T09:22:02;32.05;;;17.27;;
32780;SDS011;19136;47.032;15.502;2024-03-08T09:24:29;31.27;;;17.10;;
32780;SDS011;19136;47.032;15.502;2024-03-08T09:26:54;30.65;;;16.70;;
32780;SDS011;19136;47.032;15.502;2024-03-08T09:29:20;31.50;;;16.45;;
32780;SDS011;19136;47.032;15.502;2024-03-08T09:31:45;32.20;;;17.05;;
32780;SDS011;19136;47.032;15.502;2024-03-08T09:34:11;31.80;;;16.20;;
32780;SDS011;19136;47.032;15.502;2024-03-08T09:36:36;29.23;;;15.57;;
32780;SDS011;19136;47.032;15.502;2024-03-08T09:39:02;28.85;;;16.67;;
32780;SDS011;19136;47.032;15.502;2024-03-08T09:41:28;31.75;;;16.35;;
32780;SDS011;19136;47.032;15.502;2024-03-08T09:43:56;33.10;;;17.35;;
32780;SDS011;19136;47.032;15.502;2024-03-08T09:46:24;31.92;;;15.93;;
32780;SDS011;19136;47.032;15.502;2024-03-08T09:48:50;27.67;;;13.68;;
32780;SDS011;19136;47.032;15.502;2024-03-08T09:51:16;28.27;;;15.55;;
32780;SDS011;19136;47.032;15.502;2024-03-08T09:53:42;28.75;;;15.15;;
32780;SDS011;19136;47.032;15.502;2024-03-08T09:56:07;28.50;;;15.25;;
32780;SDS011;19136;47.032;15.502;2024-03-08T09:58:33;31.08;;;15.25;;
32780;SDS011;19136;47.032;15.502;2024-03-08T10:00:59;29.65;;;15.48;;
32780;SDS011;19136;47.032;15.502;2024-03-08T10:03:27;29.98;;;15.68;;
32780;SDS011;19136;47.032;15.502;2024-03-08T10:05:52;29.65;;;15.38;;
32780;SDS011;19136;47.032;15.502;2024-03-08T10:08:21;29.42;;;14.82;;
32780;SDS011;19136;47.032;15.502;2024-03-08T10:10:47;32.97;;;17.15;;
32780;SDS011;19136;47.032;15.502;2024-03-08T10:13:12;27.13;;;15.48;;
32780;SDS011;19136;47.032;15.502;2024-03-08T10:15:39;27.05;;;15.23;;
32780;SDS011;19136;47.032;15.502;2024-03-08T10:18:06;27.92;;;14.57;;
32780;SDS011;19136;47.032;15.502;2024-03-08T10:20:32;27.35;;;14.00;;
32780;SDS011;19136;47.032;15.502;2024-03-08T10:23:01;21.73;;;12.02;;
32780;SDS011;19136;47.032;15.502;2024-03-08T10:25:28;20.30;;;12.15;;
32780;SDS011;19136;47.032;15.502;2024-03-08T10:27:55;22.48;;;12.70;;
32780;SDS011;19136;47.032;15.502;2024-03-08T10:30:21;16.50;;;9.25;;
32780;SDS011;19136;47.032;15.502;2024-03-08T10:32:47;18.60;;;10.43;;
32780;SDS011;19136;47.032;15.502;2024-03-08T10:35:12;19.25;;;11.23;;
32780;SDS011;19136;47.032;15.502;2024-03-08T10:37:44;21.88;;;13.30;;
32780;SDS011;19136;47.032;15.502;2024-03-08T10:40:09;24.20;;;14.88;;
32780;SDS011;19136;47.032;15.502;2024-03-08T10:42:43;27.35;;;15.30;;
32780;SDS011;19136;47.032;15.502;2024-03-08T10:47:55;28.52;;;13.98;;
32780;SDS011;19136;47.032;15.502;2024-03-08T10:50:24;20.88;;;12.70;;
32780;SDS011;19136;47.032;15.502;2024-03-08T10:52:51;19.95;;;10.45;;
32780;SDS011;19136;47.032;15.502;2024-03-08T10:55:17;17.73;;;10.20;;
32780;SDS011;19136;47.032;15.502;2024-03-08T10:57:43;17.58;;;9.38;;
32780;SDS011;19136;47.032;15.502;2024-03-08T11:00:08;20.10;;;11.13;;
32780;SDS011;19136;47.032;15.502;2024-03-08T11:02:36;20.10;;;11.43;;
32780;SDS011;19136;47.032;15.502;2024-03-08T11:05:04;22.20;;;11.45;;
32780;SDS011;19136;47.032;15.502;2024-03-08T11:07:35;19.10;;;10.00;;
32780;SDS011;19136;47.032;15.502;2024-03-08T11:10:03;20.17;;;11.35;;
32780;SDS011;19136;47.032;15.502;2024-03-08T11:12:36;22.00;;;11.32;;
32780;SDS011;19136;47.032;15.502;2024-03-08T11:15:02;21.52;;;11.23;;
32780;SDS011;19136;47.032;15.502;2024-03-08T11:20:14;21.13;;;11.20;;
32780;SDS011;19136;47.032;15.502;2024-03-08T11:25:30;19.02;;;11.52;;
32780;SDS011;19136;47.032;15.502;2024-03-08T11:33:34;20.23;;;11.68;;
32780;SDS011;19136;47.032;15.502;2024-03-08T11:38:25;19.10;;;10.55;;
32780;SDS011;19136;47.032;15.502;2024-03-08T11:40:51;14.73;;;8.98;;
32780;SDS011;19136;47.032;15.502;2024-03-08T11:43:17;20.63;;;10.60;;
32780;SDS011;19136;47.032;15.502;2024-03-08T11:45:43;15.20;;;9.00;;
32780;SDS011;19136;47.032;15.502;2024-03-08T11:48:08;16.73;;;8.30;;
32780;SDS011;19136;47.032;15.502;2024-03-08T11:50:34;18.80;;;8.30;;
32780;SDS011;19136;47.032;15.502;2024-03-08T11:53:02;18.67;;;9.85;;
32780;SDS011;19136;47.032;15.502;2024-03-08T11:55:29;16.17;;;9.80;;
32780;SDS011;19136;47.032;15.502;2024-03-08T11:58:03;20.05;;;9.65;;
32780;SDS011;19136;47.032;15.502;2024-03-08T12:00:29;14.50;;;8.70;;
32780;SDS011;19136;47.032;15.502;2024-03-08T12:03:00;18.90;;;9.85;;
32780;SDS011;19136;47.032;15.502;2024-03-08T12:05:26;16.88;;;9.52;;
32780;SDS011;19136;47.032;15.502;2024-03-08T12:07:56;19.13;;;10.55;;
32780;SDS011;19136;47.032;15.502;2024-03-08T12:10:21;14.32;;;9.00;;
32780;SDS011;19136;47.032;15.502;2024-03-08T12:12:48;19.55;;;9.25;;
32780;SDS011;19136;47.032;15.502;2024-03-08T12:15:15;22.73;;;11.57;;
32780;SDS011;19136;47.032;15.502;2024-03-08T12:17:43;31.58;;;10.63;;
32780;SDS011;19136;47.032;15.502;2024-03-08T12:20:13;18.65;;;9.85;;
32780;SDS011;19136;47.032;15.502;2024-03-08T12:22:43;17.73;;;10.57;;
32780;SDS011;19136;47.032;15.502;2024-03-08T12:25:09;18.05;;;10.57;;
32780;SDS011;19136;47.032;15.502;2024-03-08T12:27:36;18.23;;;10.40;;
32780;SDS011;19136;47.032;15.502;2024-03-08T12:30:15;17.13;;;10.13;;
32780;SDS011;19136;47.032;15.502;2024-03-08T12:32:46;18.70;;;10.63;;
32780;SDS011;19136;47.032;15.502;2024-03-08T12:35:12;17.17;;;9.60;;
32780;SDS011;19136;47.032;15.502;2024-03-08T12:37:38;19.05;;;10.20;;
32780;SDS011;19136;47.032;15.502;2024-03-08T12:40:06;20.40;;;10.23;;
32780;SDS011;19136;47.032;15.502;2024-03-08T12:42:32;19.63;;;5.60;;
32780;SDS011;19136;47.032;15.502;2024-03-08T12:44:57;18.27;;;9.75;;
32780;SDS011;19136;47.032;15.502;2024-03-08T12:47:24;17.40;;;10.10;;
32780;SDS011;19136;47.032;15.502;2024-03-08T12:49:54;17.52;;;8.55;;
32780;SDS011;19136;47.032;15.502;2024-03-08T12:52:20;16.67;;;7.38;;
32780;SDS011;19136;47.032;15.502;2024-03-08T12:54:45;15.65;;;9.82;;
32780;SDS011;19136;47.032;15.502;2024-03-08T12:57:12;17.80;;;9.07;;
32780;SDS011;19136;47.032;15.502;2024-03-08T12:59:38;19.17;;;10.45;;
32780;SDS011;19136;47.032;15.502;2024-03-08T13:02:03;16.00;;;8.48;;
32780;SDS011;19136;47.032;15.502;2024-03-08T13:04:31;15.77;;;8.98;;
32780;SDS011;19136;47.032;15.502;2024-03-08T13:06:56;19.05;;;8.82;;
32780;SDS011;19136;47.032;15.502;2024-03-08T13:09:21;14.90;;;9.38;;
32780;SDS011;19136;47.032;15.502;2024-03-08T13:11:47;14.45;;;8.65;;
32780;SDS011;19136;47.032;15.502;2024-03-08T13:14:12;15.35;;;9.70;;
32780;SDS011;19136;47.032;15.502;2024-03-08T13:16:38;14.82;;;8.27;;
32780;SDS011;19136;47.032;15.502;2024-03-08T13:19:03;17.63;;;9.25;;
32780;SDS011;19136;47.032;15.502;2024-03-08T13:21:29;15.02;;;8.95;;
32780;SDS011;19136;47.032;15.502;2024-03-08T13:23:55;15.23;;;8.60;;
32780;SDS011;19136;47.032;15.502;2024-03-08T13:26:21;16.73;;;8.57;;
32780;SDS011;19136;47.032;15.502;2024-03-08T13:28:47;16.08;;;8.52;;
32780;SDS011;19136;47.032;15.502;2024-03-08T13:31:14;14.57;;;8.70;;
32780;SDS011;19136;47.032;15.502;2024-03-08T13:33:40;19.77;;;10.15;;
32780;SDS011;19136;47.032;15.502;2024-03-08T13:36:07;16.30;;;9.18;;
32780;SDS011;19136;47.032;15.502;2024-03-08T13:38:40;16.63;;;9.20;;
32780;SDS011;19136;47.032;15.502;2024-03-08T13:41:09;17.77;;;9.23;;
32780;SDS011;19136;47.032;15.502;2024-03-08T13:43:36;17.17;;;9.38;;
32780;SDS011;19136;47.032;15.502;2024-03-08T13:46:02;20.05;;;10.02;;
32780;SDS011;19136;47.032;15.502;2024-03-08T13:48:28;17.50;;;9.52;;
32780;SDS011;19136;47.032;15.502;2024-03-08T13:50:53;16.10;;;9.35;;
32780;SDS011;19136;47.032;15.502;2024-03-08T13:53:20;18.38;;;10.98;;
32780;SDS011;19136;47.032;15.502;2024-03-08T13:55:46;18.38;;;10.13;;
32780;SDS011;19136;47.032;15.502;2024-03-08T13:58:11;17.23;;;10.10;;
32780;SDS011;19136;47.032;15.502;2024-03-08T14:00:39;21.95;;;11.13;;
32780;SDS011;19136;47.032;15.502;2024-03-08T14:03:06;19.33;;;10.98;;
32780;SDS011;19136;47.032;15.502;2024-03-08T14:05:32;21.80;;;10.40;;
32780;SDS011;19136;47.032;15.502;2024-03-08T14:08:01;17.95;;;10.15;;
32780;SDS011;19136;47.032;15.502;2024-03-08T14:10:29;16.70;;;9.07;;
32780;SDS011;19136;47.032;15.502;2024-03-08T14:12:56;25.92;;;11.50;;
32780;SDS011;19136;47.032;15.502;2024-03-08T14:15:22;19.05;;;10.55;;
32780;SDS011;19136;47.032;15.502;2024-03-08T14:17:56;23.10;;;11.52;;
32780;SDS011;19136;47.032;15.502;2024-03-08T14:20:23;19.85;;;11.45;;
32780;SDS011;19136;47.032;15.502;2024-03-08T14:22:52;33.30;;;11.25;;
32780;SDS011;19136;47.032;15.502;2024-03-08T14:25:17;22.00;;;10.50;;
32780;SDS011;19136;47.032;15.502;2024-03-08T14:27:44;18.77;;;10.90;;